Time;durP1;ratioP1;P1;durP2;ratioP2;P2;SDS_P1;SDS_P2;PMS_P1;PMS_P2;Temp;Humidity;BMP_temperature;BMP_pressure;BME280_temperature;BME280_humidity;BME280_pressure;Samples;Min_cycle;Max_cycle;Signal;HPM_P1;HPM_P2
2019/11/25 00:00:22;;;;;;;13.85;11.2;;;;;;;1.82;88.89941;94430.1;;;;
2019/11/25 00:01:24;;;;;;;13.85;11.2;;;;;;;1.82;88.89941;94430.1;;;;
2019/11/25 00:02:25;;;;;;;13.85;11.2;;;;;;;1.82;88.89941;94430.1;;;;
2019/11/25 00:03:26;;;;;;;13.85;11.2;;;;;;;1.82;88.89941;94430.1;;;;
2019/11/25 00:04:27;;;;;;;16.3;11.5;;;;;;;1.79;89.02148;94423.74;;;;
2019/11/25 00:05:29;;;;;;;16.3;11.5;;;;;;;1.79;89.02148;94423.74;;;;
2019/11/25 00:06:30;;;;;;;16.3;11.5;;;;;;;1.79;89.02148;94423.74;;;;
2019/11/25 00:07:31;;;;;;;16.3;11.5;;;;;;;1.79;89.02148;94423.74;;;;
2019/11/25 00:08:32;;;;;;;16.3;11.5;;;;;;;1.79;89.02148;94423.74;;;;
2019/11/25 00:09:33;;;;;;;16.3;11.5;;;;;;;1.79;89.02148;94423.74;;;;
2019/11/25 00:10:34;;;;;;;16.3;11.5;;;;;;;1.79;89.02148;94423.74;;;;
2019/11/25 00:11:36;;;;;;;16.3;11.5;;;;;;;1.79;89.02148;94423.74;;;;
2019/11/25 00:12:37;;;;;;;16.3;11.5;;;;;;;1.79;89.02148;94423.74;;;;
2019/11/25 00:13:38;;;;;;;16.3;11.5;;;;;;;1.79;89.02148;94423.74;;;;
2019/11/25 00:14:39;;;;;;;14.35;11.15;;;;;;;1.76;89.04492;94428.64;;;;
2019/11/25 00:15:40;;;;;;;14.35;11.15;;;;;;;1.76;89.04492;94428.64;;;;
2019/11/25 00:16:41;;;;;;;14.35;11.15;;;;;;;1.76;89.04492;94428.64;;;;
2019/11/25 00:17:42;;;;;;;14.35;11.15;;;;;;;1.76;89.04492;94428.64;;;;
2019/11/25 00:18:43;;;;;;;14.35;11.15;;;;;;;1.76;89.04492;94428.64;;;;
2019/11/25 00:19:45;;;;;;;14.35;11.15;;;;;;;1.76;89.04492;94428.64;;;;
2019/11/25 00:20:46;;;;;;;14.35;11.15;;;;;;;1.76;89.04492;94428.64;;;;
2019/11/25 00:21:47;;;;;;;14.35;11.15;;;;;;;1.76;89.04492;94428.64;;;;
2019/11/25 00:22:48;;;;;;;14.35;11.15;;;;;;;1.76;89.04492;94428.64;;;;
2019/11/25 00:23:49;;;;;;;14.35;11.15;;;;;;;1.76;89.04492;94428.64;;;;
2019/11/25 00:24:50;;;;;;;15;11.8;;;;;;;1.64;89.29004;94429.86;;;;
2019/11/25 00:25:51;;;;;;;15;11.8;;;;;;;1.64;89.29004;94429.86;;;;
2019/11/25 00:26:52;;;;;;;15;11.8;;;;;;;1.64;89.29004;94429.86;;;;
2019/11/25 00:27:53;;;;;;;15;11.8;;;;;;;1.64;89.29004;94429.86;;;;
2019/11/25 00:28:55;;;;;;;15;11.8;;;;;;;1.64;89.29004;94429.86;;;;
2019/11/25 00:29:56;;;;;;;15;11.8;;;;;;;1.64;89.29004;94429.86;;;;
2019/11/25 00:30:57;;;;;;;15;11.8;;;;;;;1.64;89.29004;94429.86;;;;
2019/11/25 00:31:58;;;;;;;15;11.8;;;;;;;1.64;89.29004;94429.86;;;;
2019/11/25 00:32:59;;;;;;;15;11.8;;;;;;;1.64;89.29004;94429.86;;;;
2019/11/25 00:34:00;;;;;;;15;11.8;;;;;;;1.64;89.29004;94429.86;;;;
2019/11/25 00:35:01;;;;;;;15;11.8;;;;;;;1.64;89.29004;94429.86;;;;
2019/11/25 00:36:03;;;;;;;19;14.15;;;;;;;1.59;89.46777;94433.53;;;;
2019/11/25 00:37:04;;;;;;;19;14.15;;;;;;;1.59;89.46777;94433.53;;;;
2019/11/25 00:38:05;;;;;;;19;14.15;;;;;;;1.59;89.46777;94433.53;;;;
2019/11/25 00:39:06;;;;;;;19;14.15;;;;;;;1.59;89.46777;94433.53;;;;
2019/11/25 00:40:08;;;;;;;19;14.15;;;;;;;1.59;89.46777;94433.53;;;;
2019/11/25 00:41:09;;;;;;;19;14.15;;;;;;;1.59;89.46777;94433.53;;;;
2019/11/25 00:42:10;;;;;;;19;14.15;;;;;;;1.59;89.46777;94433.53;;;;
2019/11/25 00:43:11;;;;;;;19;14.15;;;;;;;1.59;89.46777;94433.53;;;;
2019/11/25 00:44:12;;;;;;;19;14.15;;;;;;;1.59;89.46777;94433.53;;;;
2019/11/25 00:45:13;;;;;;;19;14.15;;;;;;;1.59;89.46777;94433.53;;;;
2019/11/25 00:46:14;;;;;;;19;13.5;;;;;;;1.54;89.5127;94424.42;;;;
2019/11/25 00:47:15;;;;;;;19;13.5;;;;;;;1.54;89.5127;94424.42;;;;
2019/11/25 00:48:17;;;;;;;19;13.5;;;;;;;1.54;89.5127;94424.42;;;;
2019/11/25 00:49:18;;;;;;;19;13.5;;;;;;;1.54;89.5127;94424.42;;;;
2019/11/25 00:50:19;;;;;;;19;13.5;;;;;;;1.54;89.5127;94424.42;;;;
2019/11/25 00:51:20;;;;;;;19;13.5;;;;;;;1.54;89.5127;94424.42;;;;
2019/11/25 00:52:21;;;;;;;19;13.5;;;;;;;1.54;89.5127;94424.42;;;;
2019/11/25 00:53:38;;;;;;;19;13.5;;;;;;;1.54;89.5127;94424.42;;;;
2019/11/25 00:54:48;;;;;;;19;13.5;;;;;;;1.54;89.5127;94424.42;;;;
2019/11/25 00:55:50;;;;;;;19;13.5;;;;;;;1.54;89.5127;94424.42;;;;
2019/11/25 00:56:51;;;;;;;17.25;12.9;;;;;;;1.41;89.7959;94430.63;;;;
2019/11/25 00:57:52;;;;;;;17.25;12.9;;;;;;;1.41;89.7959;94430.63;;;;
2019/11/25 00:58:53;;;;;;;17.25;12.9;;;;;;;1.41;89.7959;94430.63;;;;
2019/11/25 00:59:54;;;;;;;17.25;12.9;;;;;;;1.41;89.7959;94430.63;;;;
2019/11/25 01:00:55;;;;;;;17.25;12.9;;;;;;;1.41;89.7959;94430.63;;;;
2019/11/25 01:01:59;;;;;;;17.25;12.9;;;;;;;1.41;89.7959;94430.63;;;;
2019/11/25 01:03:01;;;;;;;17.25;12.9;;;;;;;1.41;89.7959;94430.63;;;;
2019/11/25 01:04:02;;;;;;;17.25;12.9;;;;;;;1.41;89.7959;94430.63;;;;
2019/11/25 01:05:03;;;;;;;17.25;12.9;;;;;;;1.41;89.7959;94430.63;;;;
2019/11/25 01:06:05;;;;;;;17.25;12.9;;;;;;;1.41;89.7959;94430.63;;;;
2019/11/25 01:07:07;;;;;;;19.25;14.4;;;;;;;1.39;90.08398;94440.22;;;;
2019/11/25 01:08:08;;;;;;;19.25;14.4;;;;;;;1.39;90.08398;94440.22;;;;
2019/11/25 01:09:09;;;;;;;19.25;14.4;;;;;;;1.39;90.08398;94440.22;;;;
2019/11/25 01:10:10;;;;;;;19.25;14.4;;;;;;;1.39;90.08398;94440.22;;;;
2019/11/25 01:12:52;;;;;;;19.25;14.4;;;;;;;1.39;90.08398;94440.22;;;;
2019/11/25 01:13:53;;;;;;;19.25;14.4;;;;;;;1.39;90.08398;94440.22;;;;
2019/11/25 01:15:27;;;;;;;19.25;14.4;;;;;;;1.39;90.08398;94440.22;;;;
2019/11/25 01:16:28;;;;;;;19.25;14.4;;;;;;;1.39;90.08398;94440.22;;;;
2019/11/25 01:17:29;;;;;;;19.25;14.4;;;;;;;1.39;90.08398;94440.22;;;;
2019/11/25 01:19:31;;;;;;;17.8;14.05;;;;;;;1.29;90.21973;94437.97;;;;
2019/11/25 01:20:32;;;;;;;17.8;14.05;;;;;;;1.29;90.21973;94437.97;;;;
2019/11/25 01:21:34;;;;;;;17.8;14.05;;;;;;;1.29;90.21973;94437.97;;;;
2019/11/25 01:22:35;;;;;;;17.8;14.05;;;;;;;1.29;90.21973;94437.97;;;;
2019/11/25 01:23:36;;;;;;;17.8;14.05;;;;;;;1.29;90.21973;94437.97;;;;
2019/11/25 01:24:37;;;;;;;17.8;14.05;;;;;;;1.29;90.21973;94437.97;;;;
2019/11/25 01:25:45;;;;;;;17.8;14.05;;;;;;;1.29;90.21973;94437.97;;;;
2019/11/25 01:26:47;;;;;;;17.8;14.05;;;;;;;1.29;90.21973;94437.97;;;;
2019/11/25 01:27:58;;;;;;;17.8;14.05;;;;;;;1.29;90.21973;94437.97;;;;
2019/11/25 01:28:59;;;;;;;19.05;13.55;;;;;;;1.25;90.31445;94439.38;;;;
2019/11/25 01:30:00;;;;;;;19.05;13.55;;;;;;;1.25;90.31445;94439.38;;;;
2019/11/25 01:31:01;;;;;;;19.05;13.55;;;;;;;1.25;90.31445;94439.38;;;;
2019/11/25 01:32:02;;;;;;;19.05;13.55;;;;;;;1.25;90.31445;94439.38;;;;
2019/11/25 01:33:04;;;;;;;19.05;13.55;;;;;;;1.25;90.31445;94439.38;;;;
2019/11/25 01:34:06;;;;;;;19.05;13.55;;;;;;;1.25;90.31445;94439.38;;;;
2019/11/25 01:35:07;;;;;;;19.05;13.55;;;;;;;1.25;90.31445;94439.38;;;;
2019/11/25 01:36:08;;;;;;;19.05;13.55;;;;;;;1.25;90.31445;94439.38;;;;
2019/11/25 01:37:12;;;;;;;19.05;13.55;;;;;;;1.25;90.31445;94439.38;;;;
2019/11/25 01:38:13;;;;;;;19.05;13.55;;;;;;;1.25;90.31445;94439.38;;;;
2019/11/25 01:39:14;;;;;;;18.3;13.6;;;;;;;1.14;90.48047;94438.62;;;;
2019/11/25 01:40:16;;;;;;;18.3;13.6;;;;;;;1.14;90.48047;94438.62;;;;
2019/11/25 01:41:17;;;;;;;18.3;13.6;;;;;;;1.14;90.48047;94438.62;;;;
2019/11/25 01:42:18;;;;;;;18.3;13.6;;;;;;;1.14;90.48047;94438.62;;;;
2019/11/25 01:43:19;;;;;;;18.3;13.6;;;;;;;1.14;90.48047;94438.62;;;;
2019/11/25 01:44:20;;;;;;;18.3;13.6;;;;;;;1.14;90.48047;94438.62;;;;
2019/11/25 01:45:21;;;;;;;18.3;13.6;;;;;;;1.14;90.48047;94438.62;;;;
2019/11/25 01:46:22;;;;;;;18.3;13.6;;;;;;;1.14;90.48047;94438.62;;;;
2019/11/25 01:47:24;;;;;;;18.3;13.6;;;;;;;1.14;90.48047;94438.62;;;;
2019/11/25 01:48:25;;;;;;;18.3;13.6;;;;;;;1.14;90.48047;94438.62;;;;
2019/11/25 01:49:26;;;;;;;18.3;13.6;;;;;;;1.14;90.48047;94438.62;;;;
2019/11/25 01:50:27;;;;;;;18.3;13.6;;;;;;;1.14;90.48047;94438.62;;;;
2019/11/25 01:51:28;;;;;;;18.3;13.6;;;;;;;1.14;90.48047;94438.62;;;;
2019/11/25 01:52:29;;;;;;;18.3;13.6;;;;;;;1.14;90.48047;94438.62;;;;
2019/11/25 01:53:30;;;;;;;18.3;13.6;;;;;;;1.14;90.48047;94438.62;;;;
2019/11/25 01:54:32;;;;;;;18.3;13.6;;;;;;;1.14;90.48047;94438.62;;;;
2019/11/25 01:55:33;;;;;;;18.3;13.6;;;;;;;1.14;90.48047;94438.62;;;;
2019/11/25 01:56:34;;;;;;;18.3;13.6;;;;;;;1.14;90.48047;94438.62;;;;
2019/11/25 01:57:35;;;;;;;18.3;13.6;;;;;;;1.14;90.48047;94438.62;;;;
2019/11/25 01:58:36;;;;;;;18.3;13.6;;;;;;;1.14;90.48047;94438.62;;;;
2019/11/25 01:59:37;;;;;;;18.3;13.6;;;;;;;1.14;90.48047;94438.62;;;;
2019/11/25 02:00:39;;;;;;;17.9;13.45;;;;;;;1.07;90.47461;94435.13;;;;
2019/11/25 02:01:40;;;;;;;17.9;13.45;;;;;;;1.07;90.47461;94435.13;;;;
2019/11/25 02:02:41;;;;;;;17.9;13.45;;;;;;;1.07;90.47461;94435.13;;;;
2019/11/25 02:03:42;;;;;;;17.9;13.45;;;;;;;1.07;90.47461;94435.13;;;;
2019/11/25 02:05:54;;;;;;;17.9;13.45;;;;;;;1.07;90.47461;94435.13;;;;
2019/11/25 02:06:55;;;;;;;17.9;13.45;;;;;;;1.07;90.47461;94435.13;;;;
2019/11/25 02:07:57;;;;;;;17.9;13.45;;;;;;;1.07;90.47461;94435.13;;;;
2019/11/25 02:08:58;;;;;;;17.9;13.45;;;;;;;1.07;90.47461;94435.13;;;;
2019/11/25 02:09:59;;;;;;;17.9;13.45;;;;;;;1.07;90.47461;94435.13;;;;
2019/11/25 02:11:01;;;;;;;18.6;13.5;;;;;;;1.02;90.84961;94443.38;;;;
2019/11/25 02:12:02;;;;;;;18.6;13.5;;;;;;;1.02;90.84961;94443.38;;;;
2019/11/25 02:14:08;;;;;;;18.6;13.5;;;;;;;1.02;90.84961;94443.38;;;;
2019/11/25 02:15:10;;;;;;;18.6;13.5;;;;;;;1.02;90.84961;94443.38;;;;
2019/11/25 02:16:13;;;;;;;18.6;13.5;;;;;;;1.02;90.84961;94443.38;;;;
2019/11/25 02:17:15;;;;;;;18.6;13.5;;;;;;;1.02;90.84961;94443.38;;;;
2019/11/25 02:18:16;;;;;;;18.6;13.5;;;;;;;1.02;90.84961;94443.38;;;;
2019/11/25 02:19:20;;;;;;;18.6;13.5;;;;;;;1.02;90.84961;94443.38;;;;
2019/11/25 02:20:21;;;;;;;18.6;13.5;;;;;;;1.02;90.84961;94443.38;;;;
2019/11/25 02:21:55;;;;;;;15.35;12.65;;;;;;;0.91;91.04688;94437.22;;;;
2019/11/25 02:23:23;;;;;;;15.35;12.65;;;;;;;0.91;91.04688;94437.22;;;;
2019/11/25 02:24:27;;;;;;;15.35;12.65;;;;;;;0.91;91.04688;94437.22;;;;
2019/11/25 02:25:28;;;;;;;15.35;12.65;;;;;;;0.91;91.04688;94437.22;;;;
2019/11/25 02:26:29;;;;;;;15.35;12.65;;;;;;;0.91;91.04688;94437.22;;;;
2019/11/25 02:27:31;;;;;;;15.35;12.65;;;;;;;0.91;91.04688;94437.22;;;;
2019/11/25 02:28:32;;;;;;;15.35;12.65;;;;;;;0.91;91.04688;94437.22;;;;
2019/11/25 02:29:35;;;;;;;15.35;12.65;;;;;;;0.91;91.04688;94437.22;;;;
2019/11/25 02:30:36;;;;;;;15.35;12.65;;;;;;;0.91;91.04688;94437.22;;;;
2019/11/25 02:31:37;;;;;;;15.35;12.65;;;;;;;0.91;91.04688;94437.22;;;;
2019/11/25 02:32:38;;;;;;;18.7;13.9;;;;;;;0.89;91.21973;94439.25;;;;
2019/11/25 02:33:40;;;;;;;18.7;13.9;;;;;;;0.89;91.21973;94439.25;;;;
2019/11/25 02:34:43;;;;;;;18.7;13.9;;;;;;;0.89;91.21973;94439.25;;;;
2019/11/25 02:35:44;;;;;;;18.7;13.9;;;;;;;0.89;91.21973;94439.25;;;;
2019/11/25 02:36:45;;;;;;;18.7;13.9;;;;;;;0.89;91.21973;94439.25;;;;
2019/11/25 02:37:46;;;;;;;18.7;13.9;;;;;;;0.89;91.21973;94439.25;;;;
2019/11/25 02:38:47;;;;;;;18.7;13.9;;;;;;;0.89;91.21973;94439.25;;;;
2019/11/25 02:39:49;;;;;;;18.7;13.9;;;;;;;0.89;91.21973;94439.25;;;;
2019/11/25 02:40:50;;;;;;;18.7;13.9;;;;;;;0.89;91.21973;94439.25;;;;
2019/11/25 02:42:55;;;;;;;18.4;13.9;;;;;;;0.81;91.30566;94433.29;;;;
2019/11/25 02:43:56;;;;;;;18.4;13.9;;;;;;;0.81;91.30566;94433.29;;;;
2019/11/25 02:44:57;;;;;;;18.4;13.9;;;;;;;0.81;91.30566;94433.29;;;;
2019/11/25 02:45:58;;;;;;;18.4;13.9;;;;;;;0.81;91.30566;94433.29;;;;
2019/11/25 02:46:59;;;;;;;18.4;13.9;;;;;;;0.81;91.30566;94433.29;;;;
2019/11/25 02:48:01;;;;;;;18.4;13.9;;;;;;;0.81;91.30566;94433.29;;;;
2019/11/25 02:49:02;;;;;;;18.4;13.9;;;;;;;0.81;91.30566;94433.29;;;;
2019/11/25 02:50:04;;;;;;;18.4;13.9;;;;;;;0.81;91.30566;94433.29;;;;
2019/11/25 02:51:05;;;;;;;18.4;13.9;;;;;;;0.81;91.30566;94433.29;;;;
2019/11/25 02:52:06;;;;;;;18.4;13.9;;;;;;;0.81;91.30566;94433.29;;;;
2019/11/25 02:53:07;;;;;;;18.4;13.9;;;;;;;0.81;91.30566;94433.29;;;;
2019/11/25 02:54:08;;;;;;;20;14.8;;;;;;;0.75;91.71777;94440.7;;;;
2019/11/25 02:55:10;;;;;;;20;14.8;;;;;;;0.75;91.71777;94440.7;;;;
2019/11/25 02:56:11;;;;;;;20;14.8;;;;;;;0.75;91.71777;94440.7;;;;
2019/11/25 02:57:12;;;;;;;20;14.8;;;;;;;0.75;91.71777;94440.7;;;;
2019/11/25 02:58:13;;;;;;;20;14.8;;;;;;;0.75;91.71777;94440.7;;;;
2019/11/25 02:59:15;;;;;;;20;14.8;;;;;;;0.75;91.71777;94440.7;;;;
2019/11/25 03:00:16;;;;;;;20;14.8;;;;;;;0.75;91.71777;94440.7;;;;
2019/11/25 03:01:17;;;;;;;20;14.8;;;;;;;0.75;91.71777;94440.7;;;;
2019/11/25 03:02:18;;;;;;;20;14.8;;;;;;;0.75;91.71777;94440.7;;;;
2019/11/25 03:03:20;;;;;;;20;14.8;;;;;;;0.75;91.71777;94440.7;;;;
2019/11/25 03:04:21;;;;;;;21.3;15;;;;;;;0.71;91.88672;94440.78;;;;
2019/11/25 03:05:22;;;;;;;21.3;15;;;;;;;0.71;91.88672;94440.78;;;;
2019/11/25 03:06:23;;;;;;;21.3;15;;;;;;;0.71;91.88672;94440.78;;;;
2019/11/25 03:07:25;;;;;;;21.3;15;;;;;;;0.71;91.88672;94440.78;;;;
2019/11/25 03:08:26;;;;;;;21.3;15;;;;;;;0.71;91.88672;94440.78;;;;
2019/11/25 03:09:28;;;;;;;21.3;15;;;;;;;0.71;91.88672;94440.78;;;;
2019/11/25 03:10:29;;;;;;;21.3;15;;;;;;;0.71;91.88672;94440.78;;;;
2019/11/25 03:11:47;;;;;;;21.3;15;;;;;;;0.71;91.88672;94440.78;;;;
2019/11/25 03:12:48;;;;;;;21.3;15;;;;;;;0.71;91.88672;94440.78;;;;
2019/11/25 03:13:49;;;;;;;21.3;15;;;;;;;0.71;91.88672;94440.78;;;;
2019/11/25 03:18:59;;;;;;;20.7;15.25;;;;;;;0.68;92.14063;94449.56;;;;
2019/11/25 03:20:00;;;;;;;20.7;15.25;;;;;;;0.68;92.14063;94449.56;;;;
2019/11/25 03:21:02;;;;;;;20.7;15.25;;;;;;;0.68;92.14063;94449.56;;;;
2019/11/25 03:22:20;;;;;;;20.7;15.25;;;;;;;0.68;92.14063;94449.56;;;;
2019/11/25 03:23:46;;;;;;;20.7;15.25;;;;;;;0.68;92.14063;94449.56;;;;
2019/11/25 03:24:49;;;;;;;20.7;15.25;;;;;;;0.68;92.14063;94449.56;;;;
2019/11/25 03:25:50;;;;;;;20.2;15.1;;;;;;;0.65;92.30957;94467.74;;;;
2019/11/25 03:26:51;;;;;;;20.2;15.1;;;;;;;0.65;92.30957;94467.74;;;;
2019/11/25 03:27:52;;;;;;;20.2;15.1;;;;;;;0.65;92.30957;94467.74;;;;
2019/11/25 03:28:53;;;;;;;20.2;15.1;;;;;;;0.65;92.30957;94467.74;;;;
2019/11/25 03:29:55;;;;;;;20.2;15.1;;;;;;;0.65;92.30957;94467.74;;;;
2019/11/25 03:30:57;;;;;;;20.2;15.1;;;;;;;0.65;92.30957;94467.74;;;;
2019/11/25 03:32:00;;;;;;;20.2;15.1;;;;;;;0.65;92.30957;94467.74;;;;
2019/11/25 03:33:01;;;;;;;20.2;15.1;;;;;;;0.65;92.30957;94467.74;;;;
2019/11/25 03:34:02;;;;;;;20.2;15.1;;;;;;;0.65;92.30957;94467.74;;;;
2019/11/25 03:35:03;;;;;;;20.2;15.1;;;;;;;0.65;92.30957;94467.74;;;;
2019/11/25 03:36:04;;;;;;;21.65;15.3;;;;;;;0.59;92.35938;94460.03;;;;
2019/11/25 03:37:06;;;;;;;21.65;15.3;;;;;;;0.59;92.35938;94460.03;;;;
2019/11/25 03:38:07;;;;;;;21.65;15.3;;;;;;;0.59;92.35938;94460.03;;;;
2019/11/25 03:39:08;;;;;;;21.65;15.3;;;;;;;0.59;92.35938;94460.03;;;;
2019/11/25 03:40:12;;;;;;;21.65;15.3;;;;;;;0.59;92.35938;94460.03;;;;
2019/11/25 03:41:13;;;;;;;21.65;15.3;;;;;;;0.59;92.35938;94460.03;;;;
2019/11/25 03:42:14;;;;;;;21.65;15.3;;;;;;;0.59;92.35938;94460.03;;;;
2019/11/25 03:43:16;;;;;;;21.65;15.3;;;;;;;0.59;92.35938;94460.03;;;;
2019/11/25 03:44:18;;;;;;;21.65;15.3;;;;;;;0.59;92.35938;94460.03;;;;
2019/11/25 03:45:26;;;;;;;21.65;15.3;;;;;;;0.59;92.35938;94460.03;;;;
2019/11/25 03:46:28;;;;;;;24;17.65;;;;;;;0.62;92.55273;94452.58;;;;
2019/11/25 03:49:21;;;;;;;24;17.65;;;;;;;0.62;92.55273;94452.58;;;;
2019/11/25 03:52:31;;;;;;;24;17.65;;;;;;;0.62;92.55273;94452.58;;;;
2019/11/25 03:53:45;;;;;;;24;17.65;;;;;;;0.62;92.55273;94452.58;;;;
2019/11/25 03:57:43;;;;;;;28.65;19.4;;;;;;;0.94;92.86133;94458.15;;;;
2019/11/25 03:59:14;;;;;;;28.65;19.4;;;;;;;0.94;92.86133;94458.15;;;;
2019/11/25 04:01:06;;;;;;;28.65;19.4;;;;;;;0.94;92.86133;94458.15;;;;
2019/11/25 04:02:10;;;;;;;28.65;19.4;;;;;;;0.94;92.86133;94458.15;;;;
2019/11/25 04:04:55;;;;;;;28.65;19.4;;;;;;;0.94;92.86133;94458.15;;;;
2019/11/25 04:05:56;;;;;;;28.65;19.4;;;;;;;0.94;92.86133;94458.15;;;;
2019/11/25 04:06:57;;;;;;;28.65;19.4;;;;;;;0.94;92.86133;94458.15;;;;
2019/11/25 04:07:58;;;;;;;24.25;17.45;;;;;;;1.41;92.46387;94462.13;;;;
2019/11/25 04:09:00;;;;;;;24.25;17.45;;;;;;;1.41;92.46387;94462.13;;;;
2019/11/25 04:10:04;;;;;;;24.25;17.45;;;;;;;1.41;92.46387;94462.13;;;;
2019/11/25 04:11:06;;;;;;;24.25;17.45;;;;;;;1.41;92.46387;94462.13;;;;
2019/11/25 04:12:07;;;;;;;24.25;17.45;;;;;;;1.41;92.46387;94462.13;;;;
2019/11/25 04:13:08;;;;;;;24.25;17.45;;;;;;;1.41;92.46387;94462.13;;;;
2019/11/25 04:14:09;;;;;;;24.25;17.45;;;;;;;1.41;92.46387;94462.13;;;;
2019/11/25 04:15:11;;;;;;;24.25;17.45;;;;;;;1.41;92.46387;94462.13;;;;
2019/11/25 04:16:12;;;;;;;24.25;17.45;;;;;;;1.41;92.46387;94462.13;;;;
2019/11/25 04:17:14;;;;;;;24.25;17.45;;;;;;;1.41;92.46387;94462.13;;;;
2019/11/25 04:18:15;;;;;;;23.55;17.55;;;;;;;1.71;92.20508;94468.34;;;;
2019/11/25 04:19:16;;;;;;;23.55;17.55;;;;;;;1.71;92.20508;94468.34;;;;
2019/11/25 04:20:18;;;;;;;23.55;17.55;;;;;;;1.71;92.20508;94468.34;;;;
2019/11/25 04:21:19;;;;;;;23.55;17.55;;;;;;;1.71;92.20508;94468.34;;;;
2019/11/25 04:22:20;;;;;;;23.55;17.55;;;;;;;1.71;92.20508;94468.34;;;;
2019/11/25 04:23:21;;;;;;;23.55;17.55;;;;;;;1.71;92.20508;94468.34;;;;
2019/11/25 04:24:22;;;;;;;23.55;17.55;;;;;;;1.71;92.20508;94468.34;;;;
2019/11/25 04:25:23;;;;;;;23.55;17.55;;;;;;;1.71;92.20508;94468.34;;;;
2019/11/25 04:26:24;;;;;;;23.55;17.55;;;;;;;1.71;92.20508;94468.34;;;;
2019/11/25 04:27:26;;;;;;;23.55;17.55;;;;;;;1.71;92.20508;94468.34;;;;
2019/11/25 04:28:27;;;;;;;23.55;17.55;;;;;;;1.71;92.20508;94468.34;;;;
2019/11/25 04:29:28;;;;;;;22.8;16.25;;;;;;;2.01;92.28027;94456.3;;;;
2019/11/25 04:30:29;;;;;;;22.8;16.25;;;;;;;2.01;92.28027;94456.3;;;;
2019/11/25 04:31:30;;;;;;;22.8;16.25;;;;;;;2.01;92.28027;94456.3;;;;
2019/11/25 04:32:31;;;;;;;22.8;16.25;;;;;;;2.01;92.28027;94456.3;;;;
2019/11/25 04:33:34;;;;;;;22.8;16.25;;;;;;;2.01;92.28027;94456.3;;;;
2019/11/25 04:34:35;;;;;;;22.8;16.25;;;;;;;2.01;92.28027;94456.3;;;;
2019/11/25 04:35:36;;;;;;;22.8;16.25;;;;;;;2.01;92.28027;94456.3;;;;
2019/11/25 04:36:43;;;;;;;22.8;16.25;;;;;;;2.01;92.28027;94456.3;;;;
2019/11/25 04:37:47;;;;;;;22.8;16.25;;;;;;;2.01;92.28027;94456.3;;;;
2019/11/25 04:38:49;;;;;;;22.8;16.25;;;;;;;2.01;92.28027;94456.3;;;;
2019/11/25 04:39:56;;;;;;;22.95;16.45;;;;;;;2.21;92.29199;94457.12;;;;
2019/11/25 04:44:07;;;;;;;22.95;16.45;;;;;;;2.21;92.29199;94457.12;;;;
2019/11/25 04:49:44;;;;;;;22.95;16.45;;;;;;;2.21;92.29199;94457.12;;;;
2019/11/25 04:50:48;;;;;;;23.4;15.85;;;;;;;2.47;92.45313;94464.17;;;;
2019/11/25 04:52:02;;;;;;;23.4;15.85;;;;;;;2.47;92.45313;94464.17;;;;
2019/11/25 04:53:06;;;;;;;23.4;15.85;;;;;;;2.47;92.45313;94464.17;;;;
2019/11/25 04:54:08;;;;;;;23.4;15.85;;;;;;;2.47;92.45313;94464.17;;;;
2019/11/25 04:55:10;;;;;;;23.4;15.85;;;;;;;2.47;92.45313;94464.17;;;;
2019/11/25 05:00:04;;;;;;;23.4;15.85;;;;;;;2.47;92.45313;94464.17;;;;
2019/11/25 05:01:06;;;;;;;22.8;16.85;;;;;;;2.63;92.5498;94462.41;;;;
2019/11/25 05:02:07;;;;;;;22.8;16.85;;;;;;;2.63;92.5498;94462.41;;;;
2019/11/25 05:03:09;;;;;;;22.8;16.85;;;;;;;2.63;92.5498;94462.41;;;;
2019/11/25 05:04:10;;;;;;;22.8;16.85;;;;;;;2.63;92.5498;94462.41;;;;
2019/11/25 05:05:11;;;;;;;22.8;16.85;;;;;;;2.63;92.5498;94462.41;;;;
2019/11/25 05:06:12;;;;;;;22.8;16.85;;;;;;;2.63;92.5498;94462.41;;;;
2019/11/25 05:07:13;;;;;;;22.8;16.85;;;;;;;2.63;92.5498;94462.41;;;;
2019/11/25 05:08:14;;;;;;;22.8;16.85;;;;;;;2.63;92.5498;94462.41;;;;
2019/11/25 05:09:15;;;;;;;22.8;16.85;;;;;;;2.63;92.5498;94462.41;;;;
2019/11/25 05:10:18;;;;;;;22.8;16.85;;;;;;;2.63;92.5498;94462.41;;;;
2019/11/25 05:11:19;;;;;;;22.05;16.45;;;;;;;2.82;92.81055;94470.48;;;;
2019/11/25 05:12:21;;;;;;;22.05;16.45;;;;;;;2.82;92.81055;94470.48;;;;
2019/11/25 05:13:22;;;;;;;22.05;16.45;;;;;;;2.82;92.81055;94470.48;;;;
2019/11/25 05:14:23;;;;;;;22.05;16.45;;;;;;;2.82;92.81055;94470.48;;;;
2019/11/25 05:15:25;;;;;;;22.05;16.45;;;;;;;2.82;92.81055;94470.48;;;;
2019/11/25 05:16:26;;;;;;;22.05;16.45;;;;;;;2.82;92.81055;94470.48;;;;
2019/11/25 05:17:27;;;;;;;22.05;16.45;;;;;;;2.82;92.81055;94470.48;;;;
2019/11/25 05:18:28;;;;;;;22.05;16.45;;;;;;;2.82;92.81055;94470.48;;;;
2019/11/25 05:19:30;;;;;;;22.05;16.45;;;;;;;2.82;92.81055;94470.48;;;;
2019/11/25 05:20:32;;;;;;;22.05;16.45;;;;;;;2.82;92.81055;94470.48;;;;
2019/11/25 05:21:33;;;;;;;22.05;16.45;;;;;;;2.82;92.81055;94470.48;;;;
2019/11/25 05:22:34;;;;;;;26.85;18.5;;;;;;;2.91;92.95605;94470.56;;;;
2019/11/25 05:23:35;;;;;;;26.85;18.5;;;;;;;2.91;92.95605;94470.56;;;;
2019/11/25 05:24:36;;;;;;;26.85;18.5;;;;;;;2.91;92.95605;94470.56;;;;
2019/11/25 05:25:37;;;;;;;26.85;18.5;;;;;;;2.91;92.95605;94470.56;;;;
2019/11/25 05:26:38;;;;;;;26.85;18.5;;;;;;;2.91;92.95605;94470.56;;;;
2019/11/25 05:27:40;;;;;;;26.85;18.5;;;;;;;2.91;92.95605;94470.56;;;;
2019/11/25 05:28:41;;;;;;;26.85;18.5;;;;;;;2.91;92.95605;94470.56;;;;
2019/11/25 05:29:42;;;;;;;26.85;18.5;;;;;;;2.91;92.95605;94470.56;;;;
2019/11/25 05:30:44;;;;;;;26.85;18.5;;;;;;;2.91;92.95605;94470.56;;;;
2019/11/25 05:31:46;;;;;;;26.85;18.5;;;;;;;2.91;92.95605;94470.56;;;;
2019/11/25 05:32:47;;;;;;;28.9;19.1;;;;;;;3.06;93.41504;94479.24;;;;
2019/11/25 05:33:49;;;;;;;28.9;19.1;;;;;;;3.06;93.41504;94479.24;;;;
2019/11/25 05:34:50;;;;;;;28.9;19.1;;;;;;;3.06;93.41504;94479.24;;;;
2019/11/25 05:35:51;;;;;;;28.9;19.1;;;;;;;3.06;93.41504;94479.24;;;;
2019/11/25 05:36:54;;;;;;;28.9;19.1;;;;;;;3.06;93.41504;94479.24;;;;
2019/11/25 05:37:56;;;;;;;28.9;19.1;;;;;;;3.06;93.41504;94479.24;;;;
2019/11/25 05:38:57;;;;;;;28.9;19.1;;;;;;;3.06;93.41504;94479.24;;;;
2019/11/25 05:39:58;;;;;;;28.9;19.1;;;;;;;3.06;93.41504;94479.24;;;;
2019/11/25 05:40:59;;;;;;;28.9;19.1;;;;;;;3.06;93.41504;94479.24;;;;
2019/11/25 05:42:01;;;;;;;28.9;19.1;;;;;;;3.06;93.41504;94479.24;;;;
2019/11/25 05:43:02;;;;;;;31.25;20.35;;;;;;;3.12;93.86621;94492.13;;;;
2019/11/25 05:44:03;;;;;;;31.25;20.35;;;;;;;3.12;93.86621;94492.13;;;;
2019/11/25 05:45:04;;;;;;;31.25;20.35;;;;;;;3.12;93.86621;94492.13;;;;
2019/11/25 05:46:05;;;;;;;31.25;20.35;;;;;;;3.12;93.86621;94492.13;;;;
2019/11/25 05:47:07;;;;;;;31.25;20.35;;;;;;;3.12;93.86621;94492.13;;;;
2019/11/25 05:48:08;;;;;;;31.25;20.35;;;;;;;3.12;93.86621;94492.13;;;;
2019/11/25 05:49:09;;;;;;;31.25;20.35;;;;;;;3.12;93.86621;94492.13;;;;
2019/11/25 05:50:10;;;;;;;31.25;20.35;;;;;;;3.12;93.86621;94492.13;;;;
2019/11/25 05:51:11;;;;;;;31.25;20.35;;;;;;;3.12;93.86621;94492.13;;;;
2019/11/25 05:52:13;;;;;;;31.25;20.35;;;;;;;3.12;93.86621;94492.13;;;;
2019/11/25 05:53:14;;;;;;;31.25;20.35;;;;;;;3.12;93.86621;94492.13;;;;
2019/11/25 05:54:15;;;;;;;36.05;21.25;;;;;;;3.19;94.20898;94500.42;;;;
2019/11/25 05:55:16;;;;;;;36.05;21.25;;;;;;;3.19;94.20898;94500.42;;;;
2019/11/25 05:56:17;;;;;;;36.05;21.25;;;;;;;3.19;94.20898;94500.42;;;;
2019/11/25 05:57:19;;;;;;;36.05;21.25;;;;;;;3.19;94.20898;94500.42;;;;
2019/11/25 05:58:20;;;;;;;36.05;21.25;;;;;;;3.19;94.20898;94500.42;;;;
2019/11/25 05:59:21;;;;;;;36.05;21.25;;;;;;;3.19;94.20898;94500.42;;;;
2019/11/25 06:00:22;;;;;;;36.05;21.25;;;;;;;3.19;94.20898;94500.42;;;;
2019/11/25 06:01:24;;;;;;;36.05;21.25;;;;;;;3.19;94.20898;94500.42;;;;
2019/11/25 06:02:25;;;;;;;36.05;21.25;;;;;;;3.19;94.20898;94500.42;;;;
2019/11/25 06:04:27;;;;;;;29.7;20.15;;;;;;;3.16;94.36816;94511.61;;;;
2019/11/25 06:05:28;;;;;;;29.7;20.15;;;;;;;3.16;94.36816;94511.61;;;;
2019/11/25 06:06:31;;;;;;;29.7;20.15;;;;;;;3.16;94.36816;94511.61;;;;
2019/11/25 06:10:14;;;;;;;29.7;20.15;;;;;;;3.16;94.36816;94511.61;;;;
2019/11/25 06:15:25;;;;;;;36.3;22.2;;;;;;;3.15;94.89063;94521.86;;;;
2019/11/25 06:16:49;;;;;;;36.3;22.2;;;;;;;3.15;94.89063;94521.86;;;;
2019/11/25 06:17:58;;;;;;;36.3;22.2;;;;;;;3.15;94.89063;94521.86;;;;
2019/11/25 06:21:24;;;;;;;36.3;22.2;;;;;;;3.15;94.89063;94521.86;;;;
2019/11/25 06:26:33;;;;;;;61.25;25.4;;;;;;;3.24;95.25391;94531.78;;;;
2019/11/25 06:27:34;;;;;;;61.25;25.4;;;;;;;3.24;95.25391;94531.78;;;;
2019/11/25 06:28:36;;;;;;;61.25;25.4;;;;;;;3.24;95.25391;94531.78;;;;
2019/11/25 06:30:01;;;;;;;61.25;25.4;;;;;;;3.24;95.25391;94531.78;;;;
2019/11/25 06:31:03;;;;;;;61.25;25.4;;;;;;;3.24;95.25391;94531.78;;;;
2019/11/25 06:32:04;;;;;;;61.25;25.4;;;;;;;3.24;95.25391;94531.78;;;;
2019/11/25 06:33:05;;;;;;;61.25;25.4;;;;;;;3.24;95.25391;94531.78;;;;
2019/11/25 06:34:09;;;;;;;61.25;25.4;;;;;;;3.24;95.25391;94531.78;;;;
2019/11/25 06:35:11;;;;;;;61.25;25.4;;;;;;;3.24;95.25391;94531.78;;;;
2019/11/25 06:36:12;;;;;;;91.2;28.6;;;;;;;3.25;95.21484;94538.76;;;;
2019/11/25 06:37:13;;;;;;;91.2;28.6;;;;;;;3.25;95.21484;94538.76;;;;
2019/11/25 06:38:14;;;;;;;91.2;28.6;;;;;;;3.25;95.21484;94538.76;;;;
2019/11/25 06:39:15;;;;;;;91.2;28.6;;;;;;;3.25;95.21484;94538.76;;;;
2019/11/25 06:41:03;;;;;;;91.2;28.6;;;;;;;3.25;95.21484;94538.76;;;;